sensor_id;sensor_type;location;lat;lon;timestamp;pressure;altitude;pressure_sealevel;temperature;humidity
50268;BME280;36153;50.960;6.220;2023-04-20T00:00:48;101053.94;;;9.72;42.69
50268;BME280;36153;50.960;6.220;2023-04-20T00:03:48;101052.16;;;9.70;42.67
50268;BME280;36153;50.960;6.220;2023-04-20T00:06:48;101048.59;;;9.65;42.55
50268;BME280;36153;50.960;6.220;2023-04-20T00:09:50;101049.75;;;9.78;42.35
50268;BME280;36153;50.960;6.220;2023-04-20T00:12:51;101041.69;;;9.67;42.37
50268;BME280;36153;50.960;6.220;2023-04-20T00:15:51;101044.00;;;9.56;42.83
50268;BME280;36153;50.960;6.220;2023-04-20T00:18:51;101042.13;;;9.49;42.88
50268;BME280;36153;50.960;6.220;2023-04-20T00:21:52;101029.78;;;9.40;42.89
50268;BME280;36153;50.960;6.220;2023-04-20T00:24:53;101024.63;;;9.42;43.01
50268;BME280;36153;50.960;6.220;2023-04-20T00:27:53;101019.50;;;9.45;42.78
50268;BME280;36153;50.960;6.220;2023-04-20T00:30:53;101019.41;;;9.42;42.75
50268;BME280;36153;50.960;6.220;2023-04-20T00:33:54;101014.75;;;9.28;43.08
50268;BME280;36153;50.960;6.220;2023-04-20T00:36:54;101006.97;;;9.28;42.75
50268;BME280;36153;50.960;6.220;2023-04-20T00:39:56;101002.16;;;9.44;41.94
50268;BME280;36153;50.960;6.220;2023-04-20T00:42:56;100995.78;;;9.67;41.14
50268;BME280;36153;50.960;6.220;2023-04-20T00:45:57;101000.91;;;9.64;41.70
50268;BME280;36153;50.960;6.220;2023-04-20T00:48:57;100991.91;;;9.50;41.98
50268;BME280;36153;50.960;6.220;2023-04-20T00:51:59;101003.69;;;9.35;42.22
50268;BME280;36153;50.960;6.220;2023-04-20T00:55:00;100992.56;;;9.41;42.36
50268;BME280;36153;50.960;6.220;2023-04-20T00:58:01;100986.03;;;9.22;43.00
50268;BME280;36153;50.960;6.220;2023-04-20T01:01:01;100982.56;;;9.21;43.15
50268;BME280;36153;50.960;6.220;2023-04-20T01:04:01;100986.69;;;9.13;43.75
50268;BME280;36153;50.960;6.220;2023-04-20T01:07:02;100977.00;;;9.06;43.91
50268;BME280;36153;50.960;6.220;2023-04-20T01:10:04;100970.69;;;8.96;44.27
50268;BME280;36153;50.960;6.220;2023-04-20T01:13:05;100979.28;;;8.94;43.26
50268;BME280;36153;50.960;6.220;2023-04-20T01:16:06;100962.25;;;9.05;43.20
50268;BME280;36153;50.960;6.220;2023-04-20T01:19:07;100967.75;;;9.17;43.06
50268;BME280;36153;50.960;6.220;2023-04-20T01:22:07;100960.59;;;9.09;42.56
50268;BME280;36153;50.960;6.220;2023-04-20T01:25:07;100955.66;;;9.19;42.79
50268;BME280;36153;50.960;6.220;2023-04-20T01:28:08;100953.09;;;9.21;42.53
50268;BME280;36153;50.960;6.220;2023-04-20T01:31:09;100955.59;;;9.16;42.43
50268;BME280;36153;50.960;6.220;2023-04-20T01:34:10;100952.97;;;9.15;42.78
50268;BME280;36153;50.960;6.220;2023-04-20T01:37:10;100948.84;;;9.23;42.52
50268;BME280;36153;50.960;6.220;2023-04-20T01:40:12;100938.31;;;9.18;42.63
50268;BME280;36153;50.960;6.220;2023-04-20T01:43:14;100931.72;;;9.31;41.90
50268;BME280;36153;50.960;6.220;2023-04-20T01:46:14;100931.31;;;9.52;41.79
50268;BME280;36153;50.960;6.220;2023-04-20T01:49:15;100919.34;;;9.59;41.01
50268;BME280;36153;50.960;6.220;2023-04-20T01:52:15;100920.28;;;9.63;40.54
50268;BME280;36153;50.960;6.220;2023-04-20T01:55:16;100918.75;;;9.72;41.05
50268;BME280;36153;50.960;6.220;2023-04-20T01:58:16;100909.13;;;9.68;41.26
50268;BME280;36153;50.960;6.220;2023-04-20T02:01:17;100905.56;;;9.62;41.58
50268;BME280;36153;50.960;6.220;2023-04-20T02:04:17;100906.97;;;9.49;41.53
50268;BME280;36153;50.960;6.220;2023-04-20T02:07:18;100904.41;;;9.50;41.68
50268;BME280;36153;50.960;6.220;2023-04-20T02:10:18;100904.53;;;9.55;41.67
50268;BME280;36153;50.960;6.220;2023-04-20T02:13:19;100909.91;;;9.64;40.76
50268;BME280;36153;50.960;6.220;2023-04-20T02:16:22;100903.34;;;9.80;40.76
50268;BME280;36153;50.960;6.220;2023-04-20T02:19:23;100904.22;;;9.82;41.68
50268;BME280;36153;50.960;6.220;2023-04-20T02:22:23;100901.53;;;9.78;41.00
50268;BME280;36153;50.960;6.220;2023-04-20T02:25:23;100891.22;;;9.82;40.66
50268;BME280;36153;50.960;6.220;2023-04-20T02:28:24;100889.66;;;9.90;40.44
50268;BME280;36153;50.960;6.220;2023-04-20T02:31:24;100884.47;;;9.90;39.54
50268;BME280;36153;50.960;6.220;2023-04-20T02:34:24;100877.44;;;9.86;40.14
50268;BME280;36153;50.960;6.220;2023-04-20T02:37:25;100867.47;;;10.06;39.61
50268;BME280;36153;50.960;6.220;2023-04-20T02:40:26;100865.69;;;10.05;39.78
50268;BME280;36153;50.960;6.220;2023-04-20T02:43:26;100856.03;;;9.98;39.91
50268;BME280;36153;50.960;6.220;2023-04-20T02:46:27;100860.69;;;10.15;39.32
50268;BME280;36153;50.960;6.220;2023-04-20T02:49:27;100842.06;;;9.93;39.56
50268;BME280;36153;50.960;6.220;2023-04-20T02:52:27;100844.13;;;10.11;40.42
50268;BME280;36153;50.960;6.220;2023-04-20T02:55:28;100843.16;;;10.06;39.53
50268;BME280;36153;50.960;6.220;2023-04-20T02:58:28;100838.91;;;10.10;39.42
50268;BME280;36153;50.960;6.220;2023-04-20T03:01:28;100839.88;;;10.15;39.55
50268;BME280;36153;50.960;6.220;2023-04-20T03:04:29;100825.06;;;10.11;39.35
50268;BME280;36153;50.960;6.220;2023-04-20T03:07:31;100821.88;;;10.27;39.39
50268;BME280;36153;50.960;6.220;2023-04-20T03:10:32;100826.09;;;10.20;39.46
50268;BME280;36153;50.960;6.220;2023-04-20T03:13:32;100824.53;;;10.29;39.98
50268;BME280;36153;50.960;6.220;2023-04-20T03:16:32;100816.38;;;10.12;40.54
50268;BME280;36153;50.960;6.220;2023-04-20T03:19:33;100814.66;;;10.11;40.34
50268;BME280;36153;50.960;6.220;2023-04-20T03:22:33;100807.88;;;10.20;40.82
50268;BME280;36153;50.960;6.220;2023-04-20T03:25:33;100826.72;;;10.08;40.69
50268;BME280;36153;50.960;6.220;2023-04-20T03:28:34;100818.19;;;10.16;41.80
50268;BME280;36153;50.960;6.220;2023-04-20T03:31:34;100819.13;;;10.19;41.80
50268;BME280;36153;50.960;6.220;2023-04-20T03:34:35;100812.22;;;10.21;41.92
50268;BME280;36153;50.960;6.220;2023-04-20T03:37:36;100796.72;;;10.26;41.22
50268;BME280;36153;50.960;6.220;2023-04-20T03:40:36;100801.66;;;10.12;40.11
50268;BME280;36153;50.960;6.220;2023-04-20T03:43:37;100807.75;;;10.13;40.22
50268;BME280;36153;50.960;6.220;2023-04-20T03:46:37;100806.31;;;10.29;40.07
50268;BME280;36153;50.960;6.220;2023-04-20T03:49:38;100793.44;;;10.36;40.39
50268;BME280;36153;50.960;6.220;2023-04-20T03:52:38;100801.34;;;10.41;39.68
50268;BME280;36153;50.960;6.220;2023-04-20T03:55:38;100801.47;;;10.49;39.95
50268;BME280;36153;50.960;6.220;2023-04-20T03:58:39;100800.59;;;10.48;40.36
50268;BME280;36153;50.960;6.220;2023-04-20T04:01:39;100798.53;;;10.30;40.58
50268;BME280;36153;50.960;6.220;2023-04-20T04:04:39;100788.97;;;10.31;40.64
50268;BME280;36153;50.960;6.220;2023-04-20T04:07:40;100793.47;;;10.38;41.78
50268;BME280;36153;50.960;6.220;2023-04-20T04:10:40;100795.03;;;10.31;41.61
50268;BME280;36153;50.960;6.220;2023-04-20T04:13:41;100797.69;;;10.33;41.15
50268;BME280;36153;50.960;6.220;2023-04-20T04:16:41;100803.06;;;10.40;41.94
50268;BME280;36153;50.960;6.220;2023-04-20T04:19:42;100798.63;;;10.35;42.49
50268;BME280;36153;50.960;6.220;2023-04-20T04:22:42;100794.84;;;10.19;42.81
50268;BME280;36153;50.960;6.220;2023-04-20T04:25:43;100789.78;;;10.28;42.93
50268;BME280;36153;50.960;6.220;2023-04-20T04:28:43;100792.28;;;10.20;44.73
50268;BME280;36153;50.960;6.220;2023-04-20T04:31:46;100792.91;;;10.07;45.15
50268;BME280;36153;50.960;6.220;2023-04-20T04:34:47;100796.31;;;10.04;44.90
50268;BME280;36153;50.960;6.220;2023-04-20T04:37:47;100790.34;;;10.10;44.78
50268;BME280;36153;50.960;6.220;2023-04-20T04:40:48;100781.88;;;10.20;45.25
50268;BME280;36153;50.960;6.220;2023-04-20T04:43:49;100786.06;;;10.12;45.04
50268;BME280;36153;50.960;6.220;2023-04-20T04:46:49;100780.13;;;10.19;45.95
50268;BME280;36153;50.960;6.220;2023-04-20T04:49:50;100770.34;;;10.06;45.83
50268;BME280;36153;50.960;6.220;2023-04-20T04:52:50;100773.91;;;10.13;46.78
50268;BME280;36153;50.960;6.220;2023-04-20T04:55:51;100771.38;;;10.16;47.96
50268;BME280;36153;50.960;6.220;2023-04-20T04:58:51;100773.97;;;10.16;47.58
50268;BME280;36153;50.960;6.220;2023-04-20T05:01:52;100777.28;;;10.07;47.04
50268;BME280;36153;50.960;6.220;2023-04-20T05:04:52;100769.50;;;10.08;48.08
50268;BME280;36153;50.960;6.220;2023-04-20T05:07:53;100772.84;;;10.01;48.37
50268;BME280;36153;50.960;6.220;2023-04-20T05:10:53;100766.75;;;9.99;48.52
50268;BME280;36153;50.960;6.220;2023-04-20T05:13:53;100764.22;;;10.02;48.28
50268;BME280;36153;50.960;6.220;2023-04-20T05:16:54;100758.19;;;10.05;48.21
50268;BME280;36153;50.960;6.220;2023-04-20T05:19:54;100766.19;;;10.17;49.18
50268;BME280;36153;50.960;6.220;2023-04-20T05:22:55;100769.63;;;10.15;49.13
50268;BME280;36153;50.960;6.220;2023-04-20T05:25:55;100771.56;;;10.28;49.70
50268;BME280;36153;50.960;6.220;2023-04-20T05:28:55;100765.34;;;10.18;50.25
50268;BME280;36153;50.960;6.220;2023-04-20T05:31:56;100761.91;;;10.19;49.81
50268;BME280;36153;50.960;6.220;2023-04-20T05:34:56;100765.47;;;10.24;49.97
50268;BME280;36153;50.960;6.220;2023-04-20T05:37:57;100760.84;;;10.08;50.16
50268;BME280;36153;50.960;6.220;2023-04-20T05:41:01;100770.56;;;10.20;50.25
50268;BME280;36153;50.960;6.220;2023-04-20T05:44:01;100764.34;;;10.12;50.08
50268;BME280;36153;50.960;6.220;2023-04-20T05:47:02;100768.94;;;10.25;50.98
50268;BME280;36153;50.960;6.220;2023-04-20T05:50:06;100764.72;;;10.32;50.42
50268;BME280;36153;50.960;6.220;2023-04-20T05:53:07;100767.16;;;10.24;49.89
50268;BME280;36153;50.960;6.220;2023-04-20T05:56:07;100762.72;;;10.17;49.57
50268;BME280;36153;50.960;6.220;2023-04-20T05:59:08;100769.63;;;10.15;49.44
50268;BME280;36153;50.960;6.220;2023-04-20T06:02:09;100779.41;;;10.30;50.22
50268;BME280;36153;50.960;6.220;2023-04-20T06:05:09;100775.13;;;10.32;49.85
50268;BME280;36153;50.960;6.220;2023-04-20T06:08:10;100777.09;;;10.45;50.44
50268;BME280;36153;50.960;6.220;2023-04-20T06:11:11;100777.94;;;10.43;50.02
50268;BME280;36153;50.960;6.220;2023-04-20T06:14:11;100774.50;;;10.45;50.23
50268;BME280;36153;50.960;6.220;2023-04-20T06:17:13;100771.19;;;10.54;50.25
50268;BME280;36153;50.960;6.220;2023-04-20T06:20:14;100764.25;;;10.56;50.73
50268;BME280;36153;50.960;6.220;2023-04-20T06:23:15;100756.50;;;10.59;50.41
50268;BME280;36153;50.960;6.220;2023-04-20T06:26:15;100754.94;;;10.70;51.43
50268;BME280;36153;50.960;6.220;2023-04-20T06:29:15;100750.78;;;10.83;51.04
50268;BME280;36153;50.960;6.220;2023-04-20T06:32:16;100742.34;;;11.00;50.30
50268;BME280;36153;50.960;6.220;2023-04-20T06:35:17;100738.31;;;11.25;50.01
50268;BME280;36153;50.960;6.220;2023-04-20T06:38:25;100736.69;;;11.33;47.88
50268;BME280;36153;50.960;6.220;2023-04-20T06:41:28;100736.03;;;11.51;48.30
50268;BME280;36153;50.960;6.220;2023-04-20T06:44:28;100733.59;;;11.68;48.55
50268;BME280;36153;50.960;6.220;2023-04-20T06:47:28;100725.00;;;11.77;46.60
50268;BME280;36153;50.960;6.220;2023-04-20T06:50:32;100736.25;;;11.73;47.68
50268;BME280;36153;50.960;6.220;2023-04-20T06:53:33;100730.31;;;11.88;47.78
50268;BME280;36153;50.960;6.220;2023-04-20T06:56:33;100727.72;;;11.88;48.10
50268;BME280;36153;50.960;6.220;2023-04-20T06:59:33;100725.91;;;11.82;47.22
50268;BME280;36153;50.960;6.220;2023-04-20T07:02:45;100730.19;;;11.75;47.83
50268;BME280;36153;50.960;6.220;2023-04-20T07:05:46;100722.19;;;11.57;47.25
50268;BME280;36153;50.960;6.220;2023-04-20T07:08:47;100721.38;;;11.61;47.96
50268;BME280;36153;50.960;6.220;2023-04-20T07:11:47;100717.13;;;11.72;48.44
50268;BME280;36153;50.960;6.220;2023-04-20T07:14:48;100713.56;;;11.63;48.71
50268;BME280;36153;50.960;6.220;2023-04-20T07:17:48;100717.88;;;11.62;49.09
50268;BME280;36153;50.960;6.220;2023-04-20T07:20:49;100715.31;;;11.65;49.54
50268;BME280;36153;50.960;6.220;2023-04-20T07:23:50;100716.22;;;11.69;49.35
50268;BME280;36153;50.960;6.220;2023-04-20T07:26:50;100711.00;;;11.69;49.71
50268;BME280;36153;50.960;6.220;2023-04-20T07:29:51;100710.91;;;11.58;49.15
50268;BME280;36153;50.960;6.220;2023-04-20T07:32:51;100709.28;;;11.71;50.08
50268;BME280;36153;50.960;6.220;2023-04-20T07:35:52;100711.00;;;11.70;51.27
50268;BME280;36153;50.960;6.220;2023-04-20T07:38:52;100708.22;;;11.52;49.53
50268;BME280;36153;50.960;6.220;2023-04-20T07:41:52;100703.94;;;11.57;49.88
50268;BME280;36153;50.960;6.220;2023-04-20T07:44:53;100703.81;;;11.48;49.74
50268;BME280;36153;50.960;6.220;2023-04-20T07:47:53;100707.34;;;11.51;49.39
50268;BME280;36153;50.960;6.220;2023-04-20T07:50:56;100703.00;;;11.50;49.99
50268;BME280;36153;50.960;6.220;2023-04-20T07:53:56;100699.28;;;11.30;49.90
50268;BME280;36153;50.960;6.220;2023-04-20T07:56:57;100698.41;;;11.27;50.74
50268;BME280;36153;50.960;6.220;2023-04-20T07:59:58;100703.50;;;11.20;52.24
50268;BME280;36153;50.960;6.220;2023-04-20T08:02:58;100700.94;;;11.23;53.20
50268;BME280;36153;50.960;6.220;2023-04-20T08:05:59;100701.84;;;11.25;53.21
50268;BME280;36153;50.960;6.220;2023-04-20T08:08:59;100705.28;;;11.22;52.63
50268;BME280;36153;50.960;6.220;2023-04-20T08:11:59;100702.03;;;11.43;54.61
50268;BME280;36153;50.960;6.220;2023-04-20T08:15:01;100698.69;;;11.54;54.32
50268;BME280;36153;50.960;6.220;2023-04-20T08:18:04;100701.34;;;11.60;53.51
50268;BME280;36153;50.960;6.220;2023-04-20T08:21:05;100698.50;;;11.38;54.00
50268;BME280;36153;50.960;6.220;2023-04-20T08:24:06;100698.25;;;11.97;55.21
50268;BME280;36153;50.960;6.220;2023-04-20T08:27:10;100684.56;;;12.19;52.93
50268;BME280;36153;50.960;6.220;2023-04-20T08:30:10;100687.13;;;12.18;53.15
50268;BME280;36153;50.960;6.220;2023-04-20T08:33:11;100687.81;;;11.95;52.50
50268;BME280;36153;50.960;6.220;2023-04-20T08:36:12;100682.69;;;12.07;52.88
50268;BME280;36153;50.960;6.220;2023-04-20T08:39:17;100677.09;;;11.69;53.16
50268;BME280;36153;50.960;6.220;2023-04-20T08:42:18;100680.44;;;11.54;53.07
50268;BME280;36153;50.960;6.220;2023-04-20T08:45:25;100681.56;;;11.79;52.79
50268;BME280;36153;50.960;6.220;2023-04-20T08:48:33;100677.38;;;11.95;52.40
50268;BME280;36153;50.960;6.220;2023-04-20T08:51:33;100671.53;;;12.27;52.21
50268;BME280;36153;50.960;6.220;2023-04-20T08:54:33;100675.06;;;12.32;50.75
50268;BME280;36153;50.960;6.220;2023-04-20T08:57:35;100680.38;;;12.44;50.43
50268;BME280;36153;50.960;6.220;2023-04-20T09:00:45;100677.69;;;12.34;50.99
50268;BME280;36153;50.960;6.220;2023-04-20T09:03:45;100673.50;;;12.59;51.84
50268;BME280;36153;50.960;6.220;2023-04-20T09:06:47;100675.16;;;12.44;50.99
50268;BME280;36153;50.960;6.220;2023-04-20T09:10:07;100670.88;;;12.60;51.83
50268;BME280;36153;50.960;6.220;2023-04-20T09:13:29;100676.84;;;12.39;51.16
50268;BME280;36153;50.960;6.220;2023-04-20T09:16:29;100670.59;;;12.14;50.82
50268;BME280;36153;50.960;6.220;2023-04-20T09:19:30;100668.09;;;12.34;50.31
50268;BME280;36153;50.960;6.220;2023-04-20T09:22:32;100671.63;;;12.42;50.53
50268;BME280;36153;50.960;6.220;2023-04-20T09:25:33;100670.88;;;12.62;50.09
50268;BME280;36153;50.960;6.220;2023-04-20T09:28:35;100673.66;;;12.93;49.84
50268;BME280;36153;50.960;6.220;2023-04-20T09:31:37;100670.09;;;12.75;49.05
50268;BME280;36153;50.960;6.220;2023-04-20T09:34:42;100668.41;;;12.84;49.92
50268;BME280;36153;50.960;6.220;2023-04-20T09:37:47;100658.75;;;12.67;49.78
50268;BME280;36153;50.960;6.220;2023-04-20T09:40:48;100662.13;;;12.49;49.25
50268;BME280;36153;50.960;6.220;2023-04-20T09:43:49;100664.63;;;12.32;49.77
50268;BME280;36153;50.960;6.220;2023-04-20T09:46:49;100660.38;;;12.48;50.25
50268;BME280;36153;50.960;6.220;2023-04-20T09:49:50;100665.56;;;12.46;50.49
50268;BME280;36153;50.960;6.220;2023-04-20T09:52:52;100661.16;;;12.33;50.25
50268;BME280;36153;50.960;6.220;2023-04-20T09:55:52;100661.19;;;12.42;49.67
50268;BME280;36153;50.960;6.220;2023-04-20T09:58:54;100650.75;;;12.44;49.76
50268;BME280;36153;50.960;6.220;2023-04-20T10:01:55;100651.78;;;12.69;50.40
50268;BME280;36153;50.960;6.220;2023-04-20T10:04:57;100657.03;;;12.74;49.69
50268;BME280;36153;50.960;6.220;2023-04-20T10:07:58;100655.19;;;12.56;49.99
50268;BME280;36153;50.960;6.220;2023-04-20T10:11:00;100650.91;;;12.64;50.72
50268;BME280;36153;50.960;6.220;2023-04-20T10:14:13;100650.81;;;12.50;50.43
50268;BME280;36153;50.960;6.220;2023-04-20T10:17:13;100636.00;;;12.49;51.17
50268;BME280;36153;50.960;6.220;2023-04-20T10:20:21;100642.97;;;12.47;51.11
50268;BME280;36153;50.960;6.220;2023-04-20T10:23:22;100635.09;;;12.39;50.90
50268;BME280;36153;50.960;6.220;2023-04-20T10:26:34;100636.75;;;12.31;50.66
50268;BME280;36153;50.960;6.220;2023-04-20T10:29:34;100634.16;;;12.29;50.02
50268;BME280;36153;50.960;6.220;2023-04-20T10:32:35;100628.19;;;12.52;50.29
50268;BME280;36153;50.960;6.220;2023-04-20T10:38:45;100621.59;;;13.53;47.77
50268;BME280;36153;50.960;6.220;2023-04-20T10:41:53;100621.56;;;14.16;48.22
50268;BME280;36153;50.960;6.220;2023-04-20T10:44:53;100615.41;;;14.67;47.14
50268;BME280;36153;50.960;6.220;2023-04-20T10:47:54;100612.44;;;15.32;46.31
50268;BME280;36153;50.960;6.220;2023-04-20T10:50:54;100607.09;;;15.47;45.68
50268;BME280;36153;50.960;6.220;2023-04-20T10:53:59;100604.75;;;15.02;45.23
50268;BME280;36153;50.960;6.220;2023-04-20T10:57:00;100609.28;;;14.71;45.58
50268;BME280;36153;50.960;6.220;2023-04-20T11:00:19;100618.91;;;14.43;45.27
50268;BME280;36153;50.960;6.220;2023-04-20T11:03:19;100611.03;;;14.54;45.69
50268;BME280;36153;50.960;6.220;2023-04-20T11:06:21;100604.13;;;14.32;46.84
50268;BME280;36153;50.960;6.220;2023-04-20T11:09:23;100616.38;;;13.93;47.70
50268;BME280;36153;50.960;6.220;2023-04-20T11:12:25;100643.28;;;13.21;51.58
50268;BME280;36153;50.960;6.220;2023-04-20T11:15:33;100643.56;;;12.07;53.79
50268;BME280;36153;50.960;6.220;2023-04-20T11:18:33;100647.28;;;11.39;57.28
50268;BME280;36153;50.960;6.220;2023-04-20T11:24:36;100636.22;;;11.65;58.26
50268;BME280;36153;50.960;6.220;2023-04-20T11:27:38;100630.63;;;12.26;57.67
50268;BME280;36153;50.960;6.220;2023-04-20T11:30:42;100605.75;;;12.96;56.42
50268;BME280;36153;50.960;6.220;2023-04-20T11:33:42;100602.41;;;13.53;54.31
50268;BME280;36153;50.960;6.220;2023-04-20T11:36:43;100604.94;;;14.53;52.73
50268;BME280;36153;50.960;6.220;2023-04-20T11:39:43;100602.53;;;15.74;51.74
50268;BME280;36153;50.960;6.220;2023-04-20T11:42:44;100596.91;;;16.17;47.12
50268;BME280;36153;50.960;6.220;2023-04-20T11:45:45;100592.75;;;16.76;47.54
50268;BME280;36153;50.960;6.220;2023-04-20T11:48:46;100593.59;;;16.79;48.01
50268;BME280;36153;50.960;6.220;2023-04-20T11:51:47;100595.75;;;16.43;48.08
50268;BME280;36153;50.960;6.220;2023-04-20T11:54:47;100588.34;;;16.78;47.88
50268;BME280;36153;50.960;6.220;2023-04-20T11:57:48;100591.34;;;16.47;46.72
50268;BME280;36153;50.960;6.220;2023-04-20T12:00:49;100590.91;;;16.08;48.17
50268;BME280;36153;50.960;6.220;2023-04-20T12:03:50;100594.88;;;16.44;48.91
50268;BME280;36153;50.960;6.220;2023-04-20T12:06:50;100583.94;;;16.81;46.63
50268;BME280;36153;50.960;6.220;2023-04-20T12:09:51;100583.38;;;17.21;45.64
50268;BME280;36153;50.960;6.220;2023-04-20T12:12:51;100584.06;;;17.36;45.10
50268;BME280;36153;50.960;6.220;2023-04-20T12:15:52;100583.91;;;18.01;44.95
50268;BME280;36153;50.960;6.220;2023-04-20T12:18:53;100571.09;;;17.78;42.49
50268;BME280;36153;50.960;6.220;2023-04-20T12:21:54;100570.41;;;17.67;43.26
50268;BME280;36153;50.960;6.220;2023-04-20T12:24:54;100566.75;;;18.25;41.14
50268;BME280;36153;50.960;6.220;2023-04-20T12:27:55;100569.63;;;18.13;41.54
50268;BME280;36153;50.960;6.220;2023-04-20T12:30:55;100565.38;;;17.53;39.90
50268;BME280;36153;50.960;6.220;2023-04-20T12:33:55;100569.72;;;16.96;41.73
50268;BME280;36153;50.960;6.220;2023-04-20T12:36:56;100572.00;;;16.52;42.63
50268;BME280;36153;50.960;6.220;2023-04-20T12:39:56;100570.06;;;15.87;42.87
50268;BME280;36153;50.960;6.220;2023-04-20T12:42:56;100571.88;;;15.79;44.37
50268;BME280;36153;50.960;6.220;2023-04-20T12:45:57;100573.31;;;16.16;44.99
50268;BME280;36153;50.960;6.220;2023-04-20T12:48:57;100572.09;;;16.48;43.54
50268;BME280;36153;50.960;6.220;2023-04-20T12:51:57;100572.50;;;16.08;42.84
50268;BME280;36153;50.960;6.220;2023-04-20T12:54:58;100575.94;;;16.16;44.19
50268;BME280;36153;50.960;6.220;2023-04-20T12:57:59;100563.25;;;17.20;43.08
50268;BME280;36153;50.960;6.220;2023-04-20T13:00:59;100568.91;;;16.93;43.25
50268;BME280;36153;50.960;6.220;2023-04-20T13:03:59;100565.53;;;16.81;43.65
50268;BME280;36153;50.960;6.220;2023-04-20T13:07:00;100558.94;;;17.71;41.63
50268;BME280;36153;50.960;6.220;2023-04-20T13:10:00;100562.63;;;17.61;40.15
50268;BME280;36153;50.960;6.220;2023-04-20T13:13:01;100563.69;;;17.49;40.75
50268;BME280;36153;50.960;6.220;2023-04-20T13:16:01;100556.31;;;17.71;40.06
50268;BME280;36153;50.960;6.220;2023-04-20T13:19:02;100552.63;;;17.27;40.68
50268;BME280;36153;50.960;6.220;2023-04-20T13:22:02;100556.97;;;16.64;42.28
50268;BME280;36153;50.960;6.220;2023-04-20T13:25:03;100556.91;;;16.71;42.61
50268;BME280;36153;50.960;6.220;2023-04-20T13:28:04;100547.66;;;17.63;40.73
50268;BME280;36153;50.960;6.220;2023-04-20T13:31:04;100546.50;;;17.79;38.05
50268;BME280;36153;50.960;6.220;2023-04-20T13:34:05;100541.19;;;18.73;37.26
50268;BME280;36153;50.960;6.220;2023-04-20T13:37:06;100540.88;;;18.88;36.83
50268;BME280;36153;50.960;6.220;2023-04-20T13:40:07;100542.72;;;19.24;35.17
50268;BME280;36153;50.960;6.220;2023-04-20T13:43:08;100540.38;;;19.12;37.31
50268;BME280;36153;50.960;6.220;2023-04-20T13:46:08;100540.09;;;18.83;36.57
50268;BME280;36153;50.960;6.220;2023-04-20T13:49:09;100534.50;;;17.63;38.13
50268;BME280;36153;50.960;6.220;2023-04-20T13:52:10;100529.97;;;17.71;38.43
50268;BME280;36153;50.960;6.220;2023-04-20T13:55:10;100535.03;;;17.30;38.66
50268;BME280;36153;50.960;6.220;2023-04-20T13:58:11;100534.91;;;17.38;38.67
50268;BME280;36153;50.960;6.220;2023-04-20T14:01:12;100535.50;;;17.01;39.80
50268;BME280;36153;50.960;6.220;2023-04-20T14:04:15;100532.66;;;16.46;40.11
50268;BME280;36153;50.960;6.220;2023-04-20T14:07:15;100535.69;;;16.12;41.41
50268;BME280;36153;50.960;6.220;2023-04-20T14:10:16;100525.78;;;17.61;38.71
50268;BME280;36153;50.960;6.220;2023-04-20T14:13:16;100516.22;;;18.49;36.89
50268;BME280;36153;50.960;6.220;2023-04-20T14:16:16;100511.19;;;18.79;35.79
50268;BME280;36153;50.960;6.220;2023-04-20T14:19:17;100508.75;;;19.79;35.37
50268;BME280;36153;50.960;6.220;2023-04-20T14:22:17;100509.75;;;20.09;35.15
50268;BME280;36153;50.960;6.220;2023-04-20T14:25:18;100507.06;;;19.78;36.12
50268;BME280;36153;50.960;6.220;2023-04-20T14:28:18;100511.53;;;18.21;36.42
50268;BME280;36153;50.960;6.220;2023-04-20T14:31:19;100509.22;;;16.98;38.12
50268;BME280;36153;50.960;6.220;2023-04-20T14:34:19;100510.53;;;17.78;37.33
50268;BME280;36153;50.960;6.220;2023-04-20T14:37:20;100509.66;;;18.28;35.87
50268;BME280;36153;50.960;6.220;2023-04-20T14:40:20;100506.38;;;18.16;36.36
50268;BME280;36153;50.960;6.220;2023-04-20T14:43:21;100509.94;;;18.11;36.85
50268;BME280;36153;50.960;6.220;2023-04-20T14:46:22;100492.63;;;19.22;35.50
50268;BME280;36153;50.960;6.220;2023-04-20T14:49:22;100498.19;;;19.10;35.66
50268;BME280;36153;50.960;6.220;2023-04-20T14:52:23;100496.97;;;18.84;36.12
50268;BME280;36153;50.960;6.220;2023-04-20T14:55:23;100493.44;;;18.85;35.60
50268;BME280;36153;50.960;6.220;2023-04-20T14:58:24;100495.34;;;18.79;35.58
50268;BME280;36153;50.960;6.220;2023-04-20T15:01:26;100498.06;;;19.51;34.89
50268;BME280;36153;50.960;6.220;2023-04-20T15:04:26;100490.03;;;20.21;33.75
50268;BME280;36153;50.960;6.220;2023-04-20T15:07:26;100477.53;;;20.28;32.98
50268;BME280;36153;50.960;6.220;2023-04-20T15:10:27;100478.09;;;20.97;31.58
50268;BME280;36153;50.960;6.220;2023-04-20T15:13:28;100467.00;;;20.85;32.11
50268;BME280;36153;50.960;6.220;2023-04-20T15:16:28;100463.28;;;20.90;31.89
50268;BME280;36153;50.960;6.220;2023-04-20T15:19:28;100465.38;;;20.51;31.64
50268;BME280;36153;50.960;6.220;2023-04-20T15:22:29;100462.94;;;21.01;31.67
50268;BME280;36153;50.960;6.220;2023-04-20T15:25:30;100471.00;;;20.10;32.14
50268;BME280;36153;50.960;6.220;2023-04-20T15:28:30;100463.56;;;19.24;32.51
50268;BME280;36153;50.960;6.220;2023-04-20T15:31:30;100456.84;;;19.80;31.97
50268;BME280;36153;50.960;6.220;2023-04-20T15:34:31;100452.53;;;20.67;30.78
50268;BME280;36153;50.960;6.220;2023-04-20T15:37:31;100451.34;;;19.87;30.98
50268;BME280;36153;50.960;6.220;2023-04-20T15:40:31;100450.78;;;19.07;31.97
50268;BME280;36153;50.960;6.220;2023-04-20T15:43:32;100453.44;;;18.66;32.51
50268;BME280;36153;50.960;6.220;2023-04-20T15:46:32;100458.06;;;18.56;32.54
50268;BME280;36153;50.960;6.220;2023-04-20T15:49:32;100465.66;;;18.30;33.60
50268;BME280;36153;50.960;6.220;2023-04-20T15:52:36;100458.69;;;18.27;33.75
50268;BME280;36153;50.960;6.220;2023-04-20T15:55:37;100454.63;;;18.12;32.85